N54GZ KISM-KLAL
Flight info
| Callsign | N54GZ |
|---|---|
| Flight time | 0h 17m |
| Altitude | 6000 |
| Route | DCT |
| Aircraft | U16/M-VGD/C |
Departure
| Time | 2026-04-22 01:44 |
|---|---|
| Airport | Kissimmee Gateway Airport (KISM) |
Arrival
| Time | 2026-04-22 02:02 |
|---|---|
| Airport | Lakeland Linder International Airport (KLAL) |
| Time | Latitude | Longitude | Altitude | Speed | Heading |
|---|---|---|---|---|---|
| 2026-04-22 01:42 | 28.07323 | -81.52566 | 80 ft | 3 kts | 84° |
| 2026-04-22 01:42 | 28.07343 | -81.52525 | 77 ft | 10 kts | 44° |
| 2026-04-22 01:43 | 28.07396 | -81.52477 | 77 ft | 6 kts | 50° |
| 2026-04-22 01:43 | 28.07403 | -81.52423 | 80 ft | 10 kts | 122° |
| 2026-04-22 01:43 | 28.07231 | -81.52285 | 79 ft | 65 kts | 168° |
| 2026-04-22 01:43 | 28.06649 | -81.52126 | 323 ft | 95 kts | 153° |
| 2026-04-22 01:44 | 28.06158 | -81.51631 | 657 ft | 103 kts | 109° |
| 2026-04-22 01:44 | 28.06264 | -81.50814 | 942 ft | 115 kts | 54° |
| 2026-04-22 01:44 | 28.07062 | -81.50588 | 1437 ft | 139 kts | 355° |
| 2026-04-22 01:44 | 28.07825 | -81.51361 | 2116 ft | 149 kts | 304° |
| 2026-04-22 01:45 | 28.08467 | -81.52385 | 2319 ft | 171 kts | 323° |
| 2026-04-22 01:45 | 28.09294 | -81.53205 | 2233 ft | 152 kts | 305° |
| 2026-04-22 01:45 | 28.09529 | -81.54388 | 1911 ft | 157 kts | 278° |
| 2026-04-22 01:45 | 28.09830 | -81.55484 | 2000 ft | 145 kts | 306° |
| 2026-04-22 01:46 | 28.10594 | -81.56351 | 2145 ft | 166 kts | 330° |
| 2026-04-22 01:46 | 28.11381 | -81.57516 | 2199 ft | 204 kts | 291° |
| 2026-04-22 01:46 | 28.11446 | -81.59146 | 2193 ft | 203 kts | 263° |
| 2026-04-22 01:46 | 28.11372 | -81.60591 | 2198 ft | 168 kts | 279° |
| 2026-04-22 01:47 | 28.11685 | -81.61801 | 2203 ft | 155 kts | 290° |
| 2026-04-22 01:47 | 28.11967 | -81.62960 | 2196 ft | 149 kts | 287° |
| 2026-04-22 01:47 | 28.12253 | -81.64072 | 2208 ft | 144 kts | 290° |
| 2026-04-22 01:47 | 28.12533 | -81.65139 | 2188 ft | 140 kts | 289° |
| 2026-04-22 01:48 | 28.12808 | -81.66210 | 2209 ft | 146 kts | 290° |
| 2026-04-22 01:48 | 28.13139 | -81.67432 | 2207 ft | 176 kts | 289° |
| 2026-04-22 01:48 | 28.13499 | -81.68804 | 2217 ft | 187 kts | 288° |
| 2026-04-22 01:48 | 28.13885 | -81.70264 | 2227 ft | 201 kts | 288° |
| 2026-04-22 01:49 | 28.14291 | -81.71783 | 2238 ft | 185 kts | 287° |
| 2026-04-22 01:49 | 28.14622 | -81.73063 | 2229 ft | 158 kts | 289° |
| 2026-04-22 01:49 | 28.14940 | -81.74287 | 2142 ft | 158 kts | 290° |
| 2026-04-22 01:49 | 28.15198 | -81.75434 | 2267 ft | 146 kts | 286° |
| 2026-04-22 01:50 | 28.15422 | -81.76568 | 2271 ft | 141 kts | 287° |
| 2026-04-22 01:50 | 28.15675 | -81.77632 | 2214 ft | 140 kts | 284° |
| 2026-04-22 01:50 | 28.15910 | -81.78670 | 2285 ft | 147 kts | 290° |
| 2026-04-22 01:50 | 28.16147 | -81.79837 | 2367 ft | 153 kts | 262° |
| 2026-04-22 01:51 | 28.15500 | -81.80726 | 2200 ft | 157 kts | 196° |
| 2026-04-22 01:51 | 28.14431 | -81.80936 | 2263 ft | 153 kts | 190° |
| 2026-04-22 01:51 | 28.13562 | -81.81667 | 2342 ft | 159 kts | 220° |
| 2026-04-22 01:51 | 28.12863 | -81.82608 | 2381 ft | 155 kts | 224° |
| 2026-04-22 01:52 | 28.12012 | -81.83416 | 2245 ft | 154 kts | 213° |
| 2026-04-22 01:52 | 28.11271 | -81.84275 | 2274 ft | 159 kts | 221° |
| 2026-04-22 01:52 | 28.10495 | -81.85290 | 1884 ft | 177 kts | 228° |
| 2026-04-22 01:52 | 28.09830 | -81.86424 | 1806 ft | 163 kts | 236° |
| 2026-04-22 01:53 | 28.09370 | -81.87460 | 2073 ft | 146 kts | 240° |
| 2026-04-22 01:53 | 28.08880 | -81.88533 | 2350 ft | 159 kts | 236° |
| 2026-04-22 01:53 | 28.08333 | -81.89684 | 2531 ft | 171 kts | 243° |
| 2026-04-22 01:53 | 28.07994 | -81.90538 | 2292 ft | 185 kts | 244° |
| 2026-04-22 01:54 | 28.07558 | -81.91888 | 2334 ft | 183 kts | 251° |
| 2026-04-22 01:54 | 28.07198 | -81.93334 | 2119 ft | 194 kts | 252° |
| 2026-04-22 01:54 | 28.06876 | -81.94792 | 2043 ft | 179 kts | 257° |
| 2026-04-22 01:54 | 28.06680 | -81.96067 | 2113 ft | 161 kts | 259° |
| 2026-04-22 01:55 | 28.06477 | -81.97340 | 1903 ft | 159 kts | 255° |
| 2026-04-22 01:55 | 28.06138 | -81.98480 | 1916 ft | 153 kts | 243° |
| 2026-04-22 01:55 | 28.05589 | -81.99497 | 1733 ft | 154 kts | 225° |
| 2026-04-22 01:55 | 28.04908 | -82.00414 | 1649 ft | 148 kts | 226° |
| 2026-04-22 01:56 | 28.04334 | -82.01280 | 1853 ft | 140 kts | 228° |
| 2026-04-22 01:56 | 28.03655 | -82.02052 | 1980 ft | 132 kts | 211° |
| 2026-04-22 01:56 | 28.02925 | -82.02460 | 2064 ft | 105 kts | 178° |
| 2026-04-22 01:56 | 28.02198 | -82.02604 | 2033 ft | 107 kts | 175° |
| 2026-04-22 01:57 | 28.01470 | -82.02807 | 2047 ft | 115 kts | 201° |
| 2026-04-22 01:57 | 28.01127 | -82.03688 | 1802 ft | 140 kts | 278° |
| 2026-04-22 01:57 | 28.01254 | -82.04771 | 1661 ft | 141 kts | 275° |
| 2026-04-22 01:57 | 28.01289 | -82.05898 | 1632 ft | 147 kts | 270° |
| 2026-04-22 01:58 | 28.01146 | -82.06969 | 1721 ft | 122 kts | 225° |
| 2026-04-22 01:58 | 28.00424 | -82.07204 | 1491 ft | 120 kts | 173° |
| 2026-04-22 01:58 | 27.99607 | -82.07211 | 1298 ft | 110 kts | 166° |
| 2026-04-22 01:58 | 27.98888 | -82.07307 | 1188 ft | 103 kts | 168° |
| 2026-04-22 01:59 | 27.98783 | -82.06822 | 889 ft | 97 kts | 57° |
| 2026-04-22 01:59 | 27.99010 | -82.06259 | 767 ft | 72 kts | 103° |
| 2026-04-22 01:59 | 27.98855 | -82.05729 | 618 ft | 70 kts | 89° |
| 2026-04-22 01:59 | 27.98916 | -82.05195 | 548 ft | 66 kts | 85° |
| 2026-04-22 02:00 | 27.98921 | -82.04634 | 513 ft | 85 kts | 89° |
| 2026-04-22 02:00 | 27.98909 | -82.04003 | 421 ft | 74 kts | 91° |
| 2026-04-22 02:00 | 27.98914 | -82.03430 | 262 ft | 73 kts | 87° |
| 2026-04-22 02:00 | 27.98922 | -82.02892 | 157 ft | 63 kts | 89° |
| 2026-04-22 02:01 | 27.98925 | -82.02448 | 148 ft | 54 kts | 90° |
| 2026-04-22 02:01 | 27.98925 | -82.02011 | 148 ft | 58 kts | 90° |
| 2026-04-22 02:01 | 27.98928 | -82.01539 | 148 ft | 59 kts | 90° |
| 2026-04-22 02:01 | 27.98928 | -82.01118 | 147 ft | 51 kts | 89° |
| 2026-04-22 02:02 | 27.98924 | -82.00786 | 148 ft | 25 kts | 106° |
| 2026-04-22 02:02 | 27.98828 | -82.00758 | 147 ft | 13 kts | 175° |
| 2026-04-22 02:02 | 27.98756 | -82.00767 | 148 ft | 11 kts | 230° |
| 2026-04-22 02:02 | 27.98746 | -82.00846 | 148 ft | 9 kts | 269° |
| 2026-04-22 02:03 | 27.98746 | -82.00900 | 148 ft | 5 kts | 269° |
| 2026-04-22 02:03 | 27.98744 | -82.00968 | 148 ft | 12 kts | 268° |
| 2026-04-22 02:03 | 27.98734 | -82.01060 | 148 ft | 10 kts | 212° |
| 2026-04-22 02:03 | 27.98697 | -82.01062 | 148 ft | 0 kts | 175° |